MUVR/VRA METAR and TAF weather

Enter ICAO airport designator
Station Type Date Time Source
MUVR METAR 2018/12/10 08:50 UTC NOAA

MUVR 100850Z 21004KT 8000 FEW020 21/20 Q1016


Station Type Date Time Source
MUVR Decoded METAR 2018/12/10 08:50 UTC NOAA

Varadero, Matanzas, Cuba (MUVR) 23-08N 081-17W 3M
Dec 10, 2018 - 03:50 AM EST / 2018.12.10 0850 UTC
Wind: from the SSW (210 degrees) at 5 MPH (4 KT):0
Visibility: 4 mile(s):0
Sky conditions: mostly clear
Temperature: 69 F (21 C)
Dew Point: 68 F (20 C)
Relative Humidity: 94%
Pressure (altimeter): 30.00 in. Hg (1016 hPa)
ob: MUVR 100850Z 21004KT 8000 FEW020 21/20 Q1016
cycle: 9

Station Type Date Time Source
MUVR TAF 2018/12/10 06:03 UTC NOAA

TAF MUVR 100500Z 1006/1106 VRB03KT 9000 SCT020
BECMG 1015/1017 36012KT
BECMG 1101/1103 VRB03KT


Example: see airport list